sensor_id;sensor_type;location;lat;lon;timestamp;temperature;humidity
39881;DHT22;25554;44.954;10.068;2023-08-06T00:47:06;18.40;99.90
39881;DHT22;25554;44.954;10.068;2023-08-06T00:49:35;18.30;99.90
39881;DHT22;25554;44.954;10.068;2023-08-06T00:52:03;18.20;99.90
39881;DHT22;25554;44.954;10.068;2023-08-06T00:54:30;18.20;99.90
39881;DHT22;25554;44.954;10.068;2023-08-06T00:56:58;18.20;99.90
39881;DHT22;25554;44.954;10.068;2023-08-06T00:59:25;18.10;99.90
39881;DHT22;25554;44.954;10.068;2023-08-06T01:01:51;18.20;99.90
39881;DHT22;25554;44.954;10.068;2023-08-06T01:04:18;18.20;99.90
39881;DHT22;25554;44.954;10.068;2023-08-06T01:12:47;18.00;99.90
39881;DHT22;25554;44.954;10.068;2023-08-06T01:15:46;18.00;99.90
39881;DHT22;25554;44.954;10.068;2023-08-06T01:18:12;18.00;99.90
39881;DHT22;25554;44.954;10.068;2023-08-06T01:20:39;17.90;99.90
39881;DHT22;25554;44.954;10.068;2023-08-06T01:27:22;18.00;99.90
39881;DHT22;25554;44.954;10.068;2023-08-06T01:30:02;18.00;99.90
39881;DHT22;25554;44.954;10.068;2023-08-06T01:32:48;18.00;99.90
39881;DHT22;25554;44.954;10.068;2023-08-06T01:35:59;18.00;99.90
39881;DHT22;25554;44.954;10.068;2023-08-06T01:41:53;17.90;99.90
39881;DHT22;25554;44.954;10.068;2023-08-06T01:44:19;17.80;99.90
39881;DHT22;25554;44.954;10.068;2023-08-06T01:46:55;17.80;99.90
39881;DHT22;25554;44.954;10.068;2023-08-06T01:49:21;17.80;99.90
39881;DHT22;25554;44.954;10.068;2023-08-06T01:51:47;17.80;99.90
39881;DHT22;25554;44.954;10.068;2023-08-06T01:54:13;17.80;99.90
39881;DHT22;25554;44.954;10.068;2023-08-06T01:56:40;17.90;99.90
39881;DHT22;25554;44.954;10.068;2023-08-06T01:59:06;17.90;99.90
39881;DHT22;25554;44.954;10.068;2023-08-06T02:01:33;17.90;99.90
39881;DHT22;25554;44.954;10.068;2023-08-06T02:03:59;17.90;99.90
39881;DHT22;25554;44.954;10.068;2023-08-06T02:06:25;17.90;99.90
39881;DHT22;25554;44.954;10.068;2023-08-06T02:08:51;17.90;99.90
39881;DHT22;25554;44.954;10.068;2023-08-06T02:11:18;17.90;99.90
39881;DHT22;25554;44.954;10.068;2023-08-06T02:13:46;17.90;99.90
39881;DHT22;25554;44.954;10.068;2023-08-06T02:16:17;17.90;99.90
39881;DHT22;25554;44.954;10.068;2023-08-06T02:18:43;17.90;99.90
39881;DHT22;25554;44.954;10.068;2023-08-06T02:21:09;17.90;99.90
39881;DHT22;25554;44.954;10.068;2023-08-06T02:23:35;17.90;99.90
39881;DHT22;25554;44.954;10.068;2023-08-06T02:26:02;17.80;99.90
39881;DHT22;25554;44.954;10.068;2023-08-06T02:28:30;17.80;99.90
39881;DHT22;25554;44.954;10.068;2023-08-06T02:30:56;17.80;99.90
39881;DHT22;25554;44.954;10.068;2023-08-06T02:33:23;17.80;99.90
39881;DHT22;25554;44.954;10.068;2023-08-06T02:35:49;17.80;99.90
39881;DHT22;25554;44.954;10.068;2023-08-06T02:38:16;17.80;99.90
39881;DHT22;25554;44.954;10.068;2023-08-06T02:40:45;17.70;99.90
39881;DHT22;25554;44.954;10.068;2023-08-06T02:43:13;17.70;99.90
39881;DHT22;25554;44.954;10.068;2023-08-06T02:45:39;17.70;99.90
39881;DHT22;25554;44.954;10.068;2023-08-06T02:48:06;17.60;99.90
39881;DHT22;25554;44.954;10.068;2023-08-06T02:50:40;17.60;99.90
39881;DHT22;25554;44.954;10.068;2023-08-06T02:53:08;17.60;99.90
39881;DHT22;25554;44.954;10.068;2023-08-06T02:55:35;17.60;99.90
39881;DHT22;25554;44.954;10.068;2023-08-06T02:58:04;17.60;99.90
39881;DHT22;25554;44.954;10.068;2023-08-06T03:00:35;17.60;99.90
39881;DHT22;25554;44.954;10.068;2023-08-06T03:03:03;17.60;99.90
39881;DHT22;25554;44.954;10.068;2023-08-06T03:05:40;17.60;99.90
39881;DHT22;25554;44.954;10.068;2023-08-06T03:08:07;17.60;99.90
39881;DHT22;25554;44.954;10.068;2023-08-06T03:10:35;17.50;99.90
39881;DHT22;25554;44.954;10.068;2023-08-06T03:13:04;17.40;99.90
39881;DHT22;25554;44.954;10.068;2023-08-06T03:15:30;17.30;99.90
39881;DHT22;25554;44.954;10.068;2023-08-06T03:17:56;17.30;99.90
39881;DHT22;25554;44.954;10.068;2023-08-06T03:20:25;17.30;99.90
39881;DHT22;25554;44.954;10.068;2023-08-06T03:23:00;17.20;99.90
39881;DHT22;25554;44.954;10.068;2023-08-06T03:29:40;17.20;99.90
39881;DHT22;25554;44.954;10.068;2023-08-06T03:32:06;17.20;99.90
39881;DHT22;25554;44.954;10.068;2023-08-06T03:34:33;17.20;99.90
39881;DHT22;25554;44.954;10.068;2023-08-06T03:40:37;17.20;99.90
39881;DHT22;25554;44.954;10.068;2023-08-06T03:43:30;17.20;99.90
39881;DHT22;25554;44.954;10.068;2023-08-06T03:45:57;17.20;99.90
39881;DHT22;25554;44.954;10.068;2023-08-06T03:48:24;17.20;99.90
39881;DHT22;25554;44.954;10.068;2023-08-06T03:50:50;17.20;99.90
39881;DHT22;25554;44.954;10.068;2023-08-06T03:53:18;17.10;99.90
39881;DHT22;25554;44.954;10.068;2023-08-06T03:55:45;17.10;99.90
39881;DHT22;25554;44.954;10.068;2023-08-06T03:58:11;17.10;99.90
39881;DHT22;25554;44.954;10.068;2023-08-06T04:00:37;17.00;99.90
39881;DHT22;25554;44.954;10.068;2023-08-06T04:03:04;17.00;99.90
39881;DHT22;25554;44.954;10.068;2023-08-06T04:05:33;17.00;99.90
39881;DHT22;25554;44.954;10.068;2023-08-06T04:08:00;17.00;99.90
39881;DHT22;25554;44.954;10.068;2023-08-06T04:10:26;16.90;99.90
39881;DHT22;25554;44.954;10.068;2023-08-06T04:12:52;16.90;99.90
39881;DHT22;25554;44.954;10.068;2023-08-06T04:15:18;16.90;99.90
39881;DHT22;25554;44.954;10.068;2023-08-06T04:17:45;16.80;99.90
39881;DHT22;25554;44.954;10.068;2023-08-06T04:20:11;16.80;99.90
39881;DHT22;25554;44.954;10.068;2023-08-06T04:22:37;16.80;99.90
39881;DHT22;25554;44.954;10.068;2023-08-06T04:25:04;16.80;99.90
39881;DHT22;25554;44.954;10.068;2023-08-06T04:27:31;16.80;99.90
39881;DHT22;25554;44.954;10.068;2023-08-06T04:29:58;16.80;99.90
39881;DHT22;25554;44.954;10.068;2023-08-06T04:32:25;16.80;99.90
39881;DHT22;25554;44.954;10.068;2023-08-06T04:34:55;16.80;99.90
39881;DHT22;25554;44.954;10.068;2023-08-06T04:37:23;16.80;99.90
39881;DHT22;25554;44.954;10.068;2023-08-06T04:39:49;16.80;99.90
39881;DHT22;25554;44.954;10.068;2023-08-06T04:42:17;16.90;99.90
39881;DHT22;25554;44.954;10.068;2023-08-06T04:44:44;16.90;99.90
39881;DHT22;25554;44.954;10.068;2023-08-06T04:47:10;17.00;99.90
39881;DHT22;25554;44.954;10.068;2023-08-06T04:49:36;17.00;99.90
39881;DHT22;25554;44.954;10.068;2023-08-06T04:52:03;17.10;99.90
39881;DHT22;25554;44.954;10.068;2023-08-06T04:54:29;17.20;99.90
39881;DHT22;25554;44.954;10.068;2023-08-06T04:56:56;17.30;99.90
39881;DHT22;25554;44.954;10.068;2023-08-06T04:59:22;17.40;99.90
39881;DHT22;25554;44.954;10.068;2023-08-06T05:01:48;17.40;99.90
39881;DHT22;25554;44.954;10.068;2023-08-06T05:04:14;17.50;99.90
39881;DHT22;25554;44.954;10.068;2023-08-06T05:06:41;17.60;99.90
39881;DHT22;25554;44.954;10.068;2023-08-06T05:09:07;17.80;99.90
39881;DHT22;25554;44.954;10.068;2023-08-06T05:11:33;17.90;99.90
39881;DHT22;25554;44.954;10.068;2023-08-06T05:13:59;18.00;99.90
39881;DHT22;25554;44.954;10.068;2023-08-06T05:16:26;18.00;99.90
39881;DHT22;25554;44.954;10.068;2023-08-06T05:18:52;18.10;99.90
39881;DHT22;25554;44.954;10.068;2023-08-06T05:21:18;18.10;99.90
39881;DHT22;25554;44.954;10.068;2023-08-06T05:26:55;18.10;99.90
39881;DHT22;25554;44.954;10.068;2023-08-06T05:29:21;18.10;99.90
39881;DHT22;25554;44.954;10.068;2023-08-06T05:32:07;18.10;99.90
39881;DHT22;25554;44.954;10.068;2023-08-06T05:37:59;18.20;99.90
39881;DHT22;25554;44.954;10.068;2023-08-06T05:40:26;18.20;99.90
39881;DHT22;25554;44.954;10.068;2023-08-06T05:42:54;18.30;99.90
39881;DHT22;25554;44.954;10.068;2023-08-06T05:45:20;18.50;99.90
39881;DHT22;25554;44.954;10.068;2023-08-06T05:47:50;18.50;99.90
39881;DHT22;25554;44.954;10.068;2023-08-06T05:50:16;18.50;99.90
39881;DHT22;25554;44.954;10.068;2023-08-06T05:52:42;18.60;99.90
39881;DHT22;25554;44.954;10.068;2023-08-06T05:55:08;18.60;99.90
39881;DHT22;25554;44.954;10.068;2023-08-06T05:57:35;18.60;99.90
39881;DHT22;25554;44.954;10.068;2023-08-06T06:00:02;18.70;99.90
39881;DHT22;25554;44.954;10.068;2023-08-06T06:02:38;18.70;99.90
39881;DHT22;25554;44.954;10.068;2023-08-06T06:05:05;18.80;99.90
39881;DHT22;25554;44.954;10.068;2023-08-06T06:07:31;18.90;99.90
39881;DHT22;25554;44.954;10.068;2023-08-06T06:09:57;19.10;99.90
39881;DHT22;25554;44.954;10.068;2023-08-06T06:12:23;19.10;99.90
39881;DHT22;25554;44.954;10.068;2023-08-06T06:14:51;19.20;99.90
39881;DHT22;25554;44.954;10.068;2023-08-06T06:17:18;19.30;99.90
39881;DHT22;25554;44.954;10.068;2023-08-06T06:19:44;19.50;99.90
39881;DHT22;25554;44.954;10.068;2023-08-06T06:22:10;19.50;99.90
39881;DHT22;25554;44.954;10.068;2023-08-06T06:24:36;19.60;99.90
39881;DHT22;25554;44.954;10.068;2023-08-06T06:27:03;19.70;99.90
39881;DHT22;25554;44.954;10.068;2023-08-06T06:29:29;19.90;99.90
39881;DHT22;25554;44.954;10.068;2023-08-06T06:31:56;19.90;99.90
39881;DHT22;25554;44.954;10.068;2023-08-06T06:34:22;20.00;99.90
39881;DHT22;25554;44.954;10.068;2023-08-06T06:36:49;20.20;99.90
39881;DHT22;25554;44.954;10.068;2023-08-06T06:39:17;20.40;99.90
39881;DHT22;25554;44.954;10.068;2023-08-06T06:41:43;20.60;99.90
39881;DHT22;25554;44.954;10.068;2023-08-06T06:44:19;20.70;99.90
39881;DHT22;25554;44.954;10.068;2023-08-06T06:46:46;20.80;99.90
39881;DHT22;25554;44.954;10.068;2023-08-06T06:49:13;21.00;99.90
39881;DHT22;25554;44.954;10.068;2023-08-06T06:51:39;21.00;99.90
39881;DHT22;25554;44.954;10.068;2023-08-06T06:54:05;21.10;99.90
39881;DHT22;25554;44.954;10.068;2023-08-06T06:56:32;21.30;99.90
39881;DHT22;25554;44.954;10.068;2023-08-06T06:58:58;21.80;99.90
39881;DHT22;25554;44.954;10.068;2023-08-06T07:01:24;22.50;99.90
39881;DHT22;25554;44.954;10.068;2023-08-06T07:03:50;23.10;99.90
39881;DHT22;25554;44.954;10.068;2023-08-06T07:06:17;23.60;99.90
39881;DHT22;25554;44.954;10.068;2023-08-06T07:08:45;24.20;99.90
39881;DHT22;25554;44.954;10.068;2023-08-06T07:11:11;24.50;99.90
39881;DHT22;25554;44.954;10.068;2023-08-06T07:13:37;24.70;99.90
39881;DHT22;25554;44.954;10.068;2023-08-06T07:16:03;24.60;99.90
39881;DHT22;25554;44.954;10.068;2023-08-06T07:18:30;24.60;99.90
39881;DHT22;25554;44.954;10.068;2023-08-06T07:20:56;24.60;99.90
39881;DHT22;25554;44.954;10.068;2023-08-06T07:23:24;24.60;99.90
39881;DHT22;25554;44.954;10.068;2023-08-06T07:25:51;24.60;99.90
39881;DHT22;25554;44.954;10.068;2023-08-06T07:28:17;24.70;99.90
39881;DHT22;25554;44.954;10.068;2023-08-06T07:30:43;25.00;99.90
39881;DHT22;25554;44.954;10.068;2023-08-06T07:33:10;25.20;99.90
39881;DHT22;25554;44.954;10.068;2023-08-06T07:35:37;25.40;99.90
39881;DHT22;25554;44.954;10.068;2023-08-06T07:38:03;25.40;99.90
39881;DHT22;25554;44.954;10.068;2023-08-06T07:40:29;25.40;99.90
39881;DHT22;25554;44.954;10.068;2023-08-06T07:42:56;25.30;99.90
39881;DHT22;25554;44.954;10.068;2023-08-06T07:45:22;25.30;99.90
39881;DHT22;25554;44.954;10.068;2023-08-06T07:47:48;25.30;99.90
39881;DHT22;25554;44.954;10.068;2023-08-06T07:50:15;25.30;99.90
39881;DHT22;25554;44.954;10.068;2023-08-06T07:52:41;25.40;99.90
39881;DHT22;25554;44.954;10.068;2023-08-06T07:55:07;25.50;99.90
39881;DHT22;25554;44.954;10.068;2023-08-06T07:57:34;25.60;99.90
39881;DHT22;25554;44.954;10.068;2023-08-06T08:00:01;25.80;99.90
39881;DHT22;25554;44.954;10.068;2023-08-06T08:02:27;25.90;99.90
39881;DHT22;25554;44.954;10.068;2023-08-06T08:04:54;26.00;99.90
39881;DHT22;25554;44.954;10.068;2023-08-06T08:07:20;26.10;99.90
39881;DHT22;25554;44.954;10.068;2023-08-06T08:09:46;26.10;99.90
39881;DHT22;25554;44.954;10.068;2023-08-06T08:12:14;26.20;99.90
39881;DHT22;25554;44.954;10.068;2023-08-06T08:14:40;26.20;99.90
39881;DHT22;25554;44.954;10.068;2023-08-06T08:17:07;26.20;99.90
39881;DHT22;25554;44.954;10.068;2023-08-06T08:19:33;26.20;99.90
39881;DHT22;25554;44.954;10.068;2023-08-06T08:22:00;26.10;99.90
39881;DHT22;25554;44.954;10.068;2023-08-06T08:24:26;26.20;99.90
39881;DHT22;25554;44.954;10.068;2023-08-06T08:26:58;26.20;99.90
39881;DHT22;25554;44.954;10.068;2023-08-06T08:29:25;26.20;99.90
39881;DHT22;25554;44.954;10.068;2023-08-06T08:31:54;26.20;99.90
39881;DHT22;25554;44.954;10.068;2023-08-06T08:34:45;26.30;99.90
39881;DHT22;25554;44.954;10.068;2023-08-06T08:37:24;26.40;99.90
39881;DHT22;25554;44.954;10.068;2023-08-06T08:39:50;26.60;99.80
39881;DHT22;25554;44.954;10.068;2023-08-06T08:42:18;26.60;99.80
39881;DHT22;25554;44.954;10.068;2023-08-06T08:44:45;26.70;99.50
39881;DHT22;25554;44.954;10.068;2023-08-06T08:47:12;26.70;99.40
39881;DHT22;25554;44.954;10.068;2023-08-06T08:49:40;26.70;98.20
39881;DHT22;25554;44.954;10.068;2023-08-06T08:52:07;26.80;97.40
39881;DHT22;25554;44.954;10.068;2023-08-06T08:54:38;26.90;95.30
39881;DHT22;25554;44.954;10.068;2023-08-06T08:57:04;26.90;94.30
39881;DHT22;25554;44.954;10.068;2023-08-06T08:59:33;26.90;94.90
39881;DHT22;25554;44.954;10.068;2023-08-06T09:02:01;26.90;94.60
39881;DHT22;25554;44.954;10.068;2023-08-06T09:04:29;26.80;93.90
39881;DHT22;25554;44.954;10.068;2023-08-06T09:06:58;26.90;94.60
39881;DHT22;25554;44.954;10.068;2023-08-06T09:09:31;27.00;94.40
39881;DHT22;25554;44.954;10.068;2023-08-06T09:12:11;27.10;93.80
39881;DHT22;25554;44.954;10.068;2023-08-06T09:14:38;27.20;94.60
39881;DHT22;25554;44.954;10.068;2023-08-06T09:17:04;27.40;92.90
39881;DHT22;25554;44.954;10.068;2023-08-06T09:19:32;27.30;92.30
39881;DHT22;25554;44.954;10.068;2023-08-06T09:33:45;27.30;91.30
39881;DHT22;25554;44.954;10.068;2023-08-06T09:41:05;28.00;90.90
39881;DHT22;25554;44.954;10.068;2023-08-06T09:48:48;28.20;88.60
39881;DHT22;25554;44.954;10.068;2023-08-06T10:24:48;29.50;86.10
39881;DHT22;25554;44.954;10.068;2023-08-06T10:27:28;27.40;82.30
39881;DHT22;25554;44.954;10.068;2023-08-06T10:32:48;28.80;83.90
39881;DHT22;25554;44.954;10.068;2023-08-06T10:35:46;28.90;85.10
39881;DHT22;25554;44.954;10.068;2023-08-06T10:38:16;28.90;86.10
39881;DHT22;25554;44.954;10.068;2023-08-06T10:41:01;28.90;84.80
39881;DHT22;25554;44.954;10.068;2023-08-06T10:43:29;28.90;83.90
39881;DHT22;25554;44.954;10.068;2023-08-06T10:45:58;29.00;84.40
39881;DHT22;25554;44.954;10.068;2023-08-06T10:48:45;29.10;83.70
39881;DHT22;25554;44.954;10.068;2023-08-06T10:51:13;29.00;83.90
39881;DHT22;25554;44.954;10.068;2023-08-06T10:53:44;29.10;84.40
39881;DHT22;25554;44.954;10.068;2023-08-06T10:56:14;28.90;86.00
39881;DHT22;25554;44.954;10.068;2023-08-06T10:58:41;28.60;84.00
39881;DHT22;25554;44.954;10.068;2023-08-06T11:03:35;29.10;86.80
39881;DHT22;25554;44.954;10.068;2023-08-06T11:08:34;29.30;83.80
39881;DHT22;25554;44.954;10.068;2023-08-06T11:11:11;29.20;80.90
39881;DHT22;25554;44.954;10.068;2023-08-06T11:13:42;31.40;81.90
39881;DHT22;25554;44.954;10.068;2023-08-06T11:18:50;29.10;81.00
39881;DHT22;25554;44.954;10.068;2023-08-06T11:21:20;29.30;79.60
39881;DHT22;25554;44.954;10.068;2023-08-06T11:26:23;29.30;78.20
39881;DHT22;25554;44.954;10.068;2023-08-06T11:31:23;29.50;77.90
39881;DHT22;25554;44.954;10.068;2023-08-06T11:33:53;29.50;76.80
39881;DHT22;25554;44.954;10.068;2023-08-06T11:36:33;29.60;77.40
39881;DHT22;25554;44.954;10.068;2023-08-06T11:48:57;29.70;77.80
39881;DHT22;25554;44.954;10.068;2023-08-06T11:51:27;29.90;76.80
39881;DHT22;25554;44.954;10.068;2023-08-06T11:53:57;29.80;78.00
39881;DHT22;25554;44.954;10.068;2023-08-06T11:56:24;29.90;77.90
39881;DHT22;25554;44.954;10.068;2023-08-06T12:08:39;29.80;81.10
39881;DHT22;25554;44.954;10.068;2023-08-06T12:11:05;29.30;77.30
39881;DHT22;25554;44.954;10.068;2023-08-06T12:13:31;29.90;74.30
39881;DHT22;25554;44.954;10.068;2023-08-06T12:15:57;29.90;78.60
39881;DHT22;25554;44.954;10.068;2023-08-06T12:20:50;30.20;76.20
39881;DHT22;25554;44.954;10.068;2023-08-06T12:23:17;30.60;76.30
39881;DHT22;25554;44.954;10.068;2023-08-06T12:25:43;29.70;75.50
39881;DHT22;25554;44.954;10.068;2023-08-06T12:28:10;30.00;72.90
39881;DHT22;25554;44.954;10.068;2023-08-06T12:30:38;29.60;78.00
39881;DHT22;25554;44.954;10.068;2023-08-06T12:35:35;30.10;72.10
39881;DHT22;25554;44.954;10.068;2023-08-06T12:38:01;30.30;70.40
39881;DHT22;25554;44.954;10.068;2023-08-06T12:50:14;30.90;73.00
39881;DHT22;25554;44.954;10.068;2023-08-06T12:55:07;30.40;70.10
39881;DHT22;25554;44.954;10.068;2023-08-06T13:00:01;30.80;74.50
39881;DHT22;25554;44.954;10.068;2023-08-06T13:04:55;30.60;71.10
39881;DHT22;25554;44.954;10.068;2023-08-06T13:07:22;30.40;71.20
39881;DHT22;25554;44.954;10.068;2023-08-06T13:09:48;30.70;68.40
39881;DHT22;25554;44.954;10.068;2023-08-06T13:17:07;30.70;73.40
39881;DHT22;25554;44.954;10.068;2023-08-06T13:19:34;30.80;71.30
39881;DHT22;25554;44.954;10.068;2023-08-06T13:22:04;30.80;71.40
39881;DHT22;25554;44.954;10.068;2023-08-06T13:36:46;30.70;67.40
39881;DHT22;25554;44.954;10.068;2023-08-06T13:41:42;30.70;67.60
39881;DHT22;25554;44.954;10.068;2023-08-06T13:44:08;31.80;67.00
39881;DHT22;25554;44.954;10.068;2023-08-06T14:01:17;30.90;67.00
39881;DHT22;25554;44.954;10.068;2023-08-06T14:06:11;31.10;63.40
39881;DHT22;25554;44.954;10.068;2023-08-06T14:11:05;31.50;66.90
39881;DHT22;25554;44.954;10.068;2023-08-06T14:13:32;31.60;62.30
39881;DHT22;25554;44.954;10.068;2023-08-06T14:37:57;31.90;61.00
39881;DHT22;25554;44.954;10.068;2023-08-06T14:47:47;31.20;64.20
39881;DHT22;25554;44.954;10.068;2023-08-06T14:57:36;31.70;62.40
39881;DHT22;25554;44.954;10.068;2023-08-06T15:02:29;30.80;61.00
39881;DHT22;25554;44.954;10.068;2023-08-06T15:34:15;31.20;69.80
39881;DHT22;25554;44.954;10.068;2023-08-06T15:56:14;31.00;61.40
39881;DHT22;25554;44.954;10.068;2023-08-06T16:20:45;31.10;60.10
39881;DHT22;25554;44.954;10.068;2023-08-06T16:25:39;30.80;58.00
39881;DHT22;25554;44.954;10.068;2023-08-06T16:28:05;31.40;68.10
39881;DHT22;25554;44.954;10.068;2023-08-06T16:35:27;30.80;61.00
39881;DHT22;25554;44.954;10.068;2023-08-06T16:42:47;30.70;62.20
39881;DHT22;25554;44.954;10.068;2023-08-06T16:47:42;30.50;62.80
39881;DHT22;25554;44.954;10.068;2023-08-06T16:52:35;30.00;73.40
39881;DHT22;25554;44.954;10.068;2023-08-06T16:55:01;30.50;63.50
39881;DHT22;25554;44.954;10.068;2023-08-06T17:04:47;30.10;75.40
39881;DHT22;25554;44.954;10.068;2023-08-06T17:12:08;29.50;64.90
39881;DHT22;25554;44.954;10.068;2023-08-06T17:17:01;29.10;68.50
39881;DHT22;25554;44.954;10.068;2023-08-06T17:19:27;29.60;64.90
39881;DHT22;25554;44.954;10.068;2023-08-06T17:21:53;29.50;65.00
39881;DHT22;25554;44.954;10.068;2023-08-06T17:24:19;29.40;64.60
39881;DHT22;25554;44.954;10.068;2023-08-06T17:26:45;29.80;68.10
39881;DHT22;25554;44.954;10.068;2023-08-06T17:29:12;29.30;65.50
39881;DHT22;25554;44.954;10.068;2023-08-06T17:31:38;29.20;64.90
39881;DHT22;25554;44.954;10.068;2023-08-06T17:36:31;29.00;68.40
39881;DHT22;25554;44.954;10.068;2023-08-06T17:58:31;27.40;71.00
39881;DHT22;25554;44.954;10.068;2023-08-06T18:00:57;27.70;67.00
39881;DHT22;25554;44.954;10.068;2023-08-06T18:05:57;27.20;64.50
39881;DHT22;25554;44.954;10.068;2023-08-06T18:10:51;27.00;64.30
39881;DHT22;25554;44.954;10.068;2023-08-06T18:15:43;27.30;68.10
39881;DHT22;25554;44.954;10.068;2023-08-06T18:18:10;26.80;64.40
39881;DHT22;25554;44.954;10.068;2023-08-06T18:20:36;26.80;69.80
39881;DHT22;25554;44.954;10.068;2023-08-06T18:27:57;26.50;71.00
39881;DHT22;25554;44.954;10.068;2023-08-06T18:35:17;26.70;70.20
39881;DHT22;25554;44.954;10.068;2023-08-06T18:45:05;25.90;64.30
39881;DHT22;25554;44.954;10.068;2023-08-06T18:47:31;25.90;72.90
39881;DHT22;25554;44.954;10.068;2023-08-06T18:57:18;25.20;66.10
39881;DHT22;25554;44.954;10.068;2023-08-06T19:02:12;24.80;76.10
39881;DHT22;25554;44.954;10.068;2023-08-06T19:21:47;24.40;81.00
39881;DHT22;25554;44.954;10.068;2023-08-06T19:24:14;24.50;69.50
39881;DHT22;25554;44.954;10.068;2023-08-06T19:36:26;23.90;75.00
39881;DHT22;25554;44.954;10.068;2023-08-06T19:46:12;23.60;70.80
39881;DHT22;25554;44.954;10.068;2023-08-06T19:53:33;26.60;74.40
39881;DHT22;25554;44.954;10.068;2023-08-06T19:58:28;23.10;72.50
39881;DHT22;25554;44.954;10.068;2023-08-06T20:00:56;23.10;72.60
39881;DHT22;25554;44.954;10.068;2023-08-06T20:03:23;22.60;74.00
39881;DHT22;25554;44.954;10.068;2023-08-06T20:05:50;22.90;73.70
39881;DHT22;25554;44.954;10.068;2023-08-06T20:10:45;22.80;74.40
39881;DHT22;25554;44.954;10.068;2023-08-06T20:15:40;22.60;74.90
39881;DHT22;25554;44.954;10.068;2023-08-06T20:20:36;22.40;75.80
39881;DHT22;25554;44.954;10.068;2023-08-06T20:23:02;22.30;81.70
39881;DHT22;25554;44.954;10.068;2023-08-06T20:32:49;22.10;76.10
39881;DHT22;25554;44.954;10.068;2023-08-06T20:40:09;22.10;75.80
39881;DHT22;25554;44.954;10.068;2023-08-06T20:42:35;22.50;79.50
39881;DHT22;25554;44.954;10.068;2023-08-06T20:45:02;22.30;77.60
39881;DHT22;25554;44.954;10.068;2023-08-06T20:57:14;22.10;75.20
39881;DHT22;25554;44.954;10.068;2023-08-06T21:02:07;22.20;75.60
39881;DHT22;25554;44.954;10.068;2023-08-06T21:07:00;22.00;75.50
39881;DHT22;25554;44.954;10.068;2023-08-06T21:09:26;21.90;76.00
39881;DHT22;25554;44.954;10.068;2023-08-06T21:14:19;21.90;76.10
39881;DHT22;25554;44.954;10.068;2023-08-06T21:19:12;21.90;76.90
39881;DHT22;25554;44.954;10.068;2023-08-06T21:24:06;21.40;81.20
39881;DHT22;25554;44.954;10.068;2023-08-06T21:43:46;21.00;79.00
39881;DHT22;25554;44.954;10.068;2023-08-06T21:46:17;21.00;80.00
39881;DHT22;25554;44.954;10.068;2023-08-06T21:48:48;21.00;80.00
39881;DHT22;25554;44.954;10.068;2023-08-06T21:51:17;20.90;79.20
39881;DHT22;25554;44.954;10.068;2023-08-06T21:56:12;20.90;79.10
39881;DHT22;25554;44.954;10.068;2023-08-06T21:58:44;20.90;79.10
39881;DHT22;25554;44.954;10.068;2023-08-06T22:01:12;21.00;78.50
39881;DHT22;25554;44.954;10.068;2023-08-06T22:03:40;21.00;78.90
39881;DHT22;25554;44.954;10.068;2023-08-06T22:06:08;21.00;78.60
39881;DHT22;25554;44.954;10.068;2023-08-06T22:15:56;20.90;78.20
39881;DHT22;25554;44.954;10.068;2023-08-06T22:23:16;22.70;85.10
39881;DHT22;25554;44.954;10.068;2023-08-06T22:33:02;20.10;83.80
39881;DHT22;25554;44.954;10.068;2023-08-06T22:37:55;19.90;84.90
39881;DHT22;25554;44.954;10.068;2023-08-06T22:42:47;19.80;86.60
39881;DHT22;25554;44.954;10.068;2023-08-06T22:47:41;20.00;87.10
39881;DHT22;25554;44.954;10.068;2023-08-06T22:50:09;19.70;88.90
39881;DHT22;25554;44.954;10.068;2023-08-06T22:55:03;19.70;89.90
39881;DHT22;25554;44.954;10.068;2023-08-06T23:12:10;19.70;99.90
39881;DHT22;25554;44.954;10.068;2023-08-06T23:14:36;19.80;99.90
39881;DHT22;25554;44.954;10.068;2023-08-06T23:17:02;19.80;99.90
39881;DHT22;25554;44.954;10.068;2023-08-06T23:19:29;18.00;99.90
39881;DHT22;25554;44.954;10.068;2023-08-06T23:21:55;19.60;99.90
39881;DHT22;25554;44.954;10.068;2023-08-06T23:24:21;19.40;99.90
39881;DHT22;25554;44.954;10.068;2023-08-06T23:26:52;19.30;99.90
39881;DHT22;25554;44.954;10.068;2023-08-06T23:29:18;19.30;99.90
39881;DHT22;25554;44.954;10.068;2023-08-06T23:31:44;16.20;99.90
39881;DHT22;25554;44.954;10.068;2023-08-06T23:34:11;19.10;99.90
39881;DHT22;25554;44.954;10.068;2023-08-06T23:36:37;19.00;99.90
39881;DHT22;25554;44.954;10.068;2023-08-06T23:39:04;19.00;99.90
39881;DHT22;25554;44.954;10.068;2023-08-06T23:41:30;18.90;99.90
39881;DHT22;25554;44.954;10.068;2023-08-06T23:43:56;18.70;99.90
39881;DHT22;25554;44.954;10.068;2023-08-06T23:46:22;18.80;99.90
39881;DHT22;25554;44.954;10.068;2023-08-06T23:48:48;18.80;99.90
39881;DHT22;25554;44.954;10.068;2023-08-06T23:51:14;18.80;99.90
39881;DHT22;25554;44.954;10.068;2023-08-06T23:53:40;18.70;99.90
39881;DHT22;25554;44.954;10.068;2023-08-06T23:56:06;18.60;99.90
39881;DHT22;25554;44.954;10.068;2023-08-06T23:58:32;18.60;99.90
